sensor_id;sensor_type;location;lat;lon;timestamp;P1;durP1;ratioP1;P2;durP2;ratioP2
53879;SDS011;39791;53.184;5.486;2023-04-01T00:00:15;124.45;;;114.18;;
53879;SDS011;39791;53.184;5.486;2023-04-01T00:02:42;241.13;;;205.68;;
53879;SDS011;39791;53.184;5.486;2023-04-01T00:05:08;481.88;;;322.55;;
53879;SDS011;39791;53.184;5.486;2023-04-01T00:07:35;207.90;;;188.68;;
53879;SDS011;39791;53.184;5.486;2023-04-01T00:10:01;572.80;;;414.48;;
53879;SDS011;39791;53.184;5.486;2023-04-01T00:12:28;386.58;;;294.40;;
53879;SDS011;39791;53.184;5.486;2023-04-01T00:14:53;357.92;;;269.83;;
53879;SDS011;39791;53.184;5.486;2023-04-01T00:17:19;306.55;;;273.17;;
53879;SDS011;39791;53.184;5.486;2023-04-01T00:19:45;274.05;;;218.52;;
53879;SDS011;39791;53.184;5.486;2023-04-01T00:22:10;168.93;;;152.90;;
53879;SDS011;39791;53.184;5.486;2023-04-01T00:24:37;189.10;;;168.43;;
53879;SDS011;39791;53.184;5.486;2023-04-01T00:27:03;314.08;;;248.18;;
53879;SDS011;39791;53.184;5.486;2023-04-01T00:29:29;530.70;;;351.05;;
53879;SDS011;39791;53.184;5.486;2023-04-01T00:31:56;336.80;;;268.58;;
53879;SDS011;39791;53.184;5.486;2023-04-01T00:34:22;165.23;;;149.88;;
53879;SDS011;39791;53.184;5.486;2023-04-01T00:36:48;258.98;;;230.88;;
53879;SDS011;39791;53.184;5.486;2023-04-01T00:39:18;652.67;;;367.98;;
53879;SDS011;39791;53.184;5.486;2023-04-01T00:41:44;1113.13;;;444.70;;
53879;SDS011;39791;53.184;5.486;2023-04-01T00:44:22;407.45;;;274.13;;
53879;SDS011;39791;53.184;5.486;2023-04-01T00:46:50;207.93;;;173.50;;
53879;SDS011;39791;53.184;5.486;2023-04-01T00:49:17;288.60;;;246.63;;
53879;SDS011;39791;53.184;5.486;2023-04-01T00:51:47;567.38;;;376.23;;
53879;SDS011;39791;53.184;5.486;2023-04-01T00:54:15;284.33;;;222.63;;
53879;SDS011;39791;53.184;5.486;2023-04-01T00:56:45;503.35;;;329.17;;
53879;SDS011;39791;53.184;5.486;2023-04-01T00:59:25;1057.82;;;449.42;;
53879;SDS011;39791;53.184;5.486;2023-04-01T01:01:54;981.58;;;476.58;;
53879;SDS011;39791;53.184;5.486;2023-04-01T01:04:21;633.17;;;402.58;;
53879;SDS011;39791;53.184;5.486;2023-04-01T01:07:11;605.28;;;331.73;;
53879;SDS011;39791;53.184;5.486;2023-04-01T01:12:57;385.90;;;248.40;;
53879;SDS011;39791;53.184;5.486;2023-04-01T01:15:47;462.23;;;223.25;;
53879;SDS011;39791;53.184;5.486;2023-04-01T01:26:51;1999.90;;;608.88;;
53879;SDS011;39791;53.184;5.486;2023-04-01T01:37:56;1060.82;;;520.45;;
53879;SDS011;39791;53.184;5.486;2023-04-01T01:40:51;762.65;;;517.83;;
53879;SDS011;39791;53.184;5.486;2023-04-01T01:43:21;1141.05;;;496.70;;
53879;SDS011;39791;53.184;5.486;2023-04-01T01:45:51;404.98;;;285.90;;
53879;SDS011;39791;53.184;5.486;2023-04-01T01:48:20;945.90;;;446.83;;
53879;SDS011;39791;53.184;5.486;2023-04-01T01:50:48;733.85;;;382.75;;
53879;SDS011;39791;53.184;5.486;2023-04-01T01:53:14;208.00;;;186.75;;
53879;SDS011;39791;53.184;5.486;2023-04-01T01:55:42;551.35;;;311.52;;
53879;SDS011;39791;53.184;5.486;2023-04-01T02:00:45;523.63;;;313.25;;
53879;SDS011;39791;53.184;5.486;2023-04-01T02:03:15;347.30;;;196.02;;
53879;SDS011;39791;53.184;5.486;2023-04-01T02:05:42;837.47;;;471.10;;
53879;SDS011;39791;53.184;5.486;2023-04-01T02:08:10;764.75;;;398.45;;
53879;SDS011;39791;53.184;5.486;2023-04-01T02:10:45;702.63;;;361.85;;
53879;SDS011;39791;53.184;5.486;2023-04-01T02:13:21;1202.75;;;546.65;;
53879;SDS011;39791;53.184;5.486;2023-04-01T02:15:54;611.22;;;404.52;;
53879;SDS011;39791;53.184;5.486;2023-04-01T02:18:24;620.85;;;430.45;;
53879;SDS011;39791;53.184;5.486;2023-04-01T02:20:50;916.17;;;472.35;;
53879;SDS011;39791;53.184;5.486;2023-04-01T02:23:16;940.60;;;433.23;;
53879;SDS011;39791;53.184;5.486;2023-04-01T02:25:42;333.05;;;266.73;;
53879;SDS011;39791;53.184;5.486;2023-04-01T02:28:10;1013.70;;;539.25;;
53879;SDS011;39791;53.184;5.486;2023-04-01T02:30:38;883.10;;;478.92;;
53879;SDS011;39791;53.184;5.486;2023-04-01T02:33:07;611.88;;;426.95;;
53879;SDS011;39791;53.184;5.486;2023-04-01T02:35:34;1166.75;;;579.30;;
53879;SDS011;39791;53.184;5.486;2023-04-01T02:38:02;1399.22;;;555.17;;
53879;SDS011;39791;53.184;5.486;2023-04-01T02:40:28;1471.72;;;587.58;;
53879;SDS011;39791;53.184;5.486;2023-04-01T02:42:54;1390.22;;;562.08;;
53879;SDS011;39791;53.184;5.486;2023-04-01T02:45:20;1241.65;;;481.95;;
53879;SDS011;39791;53.184;5.486;2023-04-01T02:47:45;857.75;;;477.90;;
53879;SDS011;39791;53.184;5.486;2023-04-01T02:50:11;695.67;;;397.98;;
53879;SDS011;39791;53.184;5.486;2023-04-01T02:52:37;1531.15;;;568.75;;
53879;SDS011;39791;53.184;5.486;2023-04-01T02:55:03;888.70;;;498.95;;
53879;SDS011;39791;53.184;5.486;2023-04-01T02:57:29;1249.55;;;532.47;;
53879;SDS011;39791;53.184;5.486;2023-04-01T02:59:55;1211.28;;;555.53;;
53879;SDS011;39791;53.184;5.486;2023-04-01T03:02:21;1699.97;;;617.53;;
53879;SDS011;39791;53.184;5.486;2023-04-01T03:04:46;1064.43;;;501.15;;
53879;SDS011;39791;53.184;5.486;2023-04-01T03:07:12;828.03;;;506.33;;
53879;SDS011;39791;53.184;5.486;2023-04-01T03:09:38;1458.80;;;557.08;;
53879;SDS011;39791;53.184;5.486;2023-04-01T03:12:04;1110.35;;;544.95;;
53879;SDS011;39791;53.184;5.486;2023-04-01T03:14:30;1805.18;;;584.33;;
53879;SDS011;39791;53.184;5.486;2023-04-01T03:16:56;1352.43;;;565.90;;
53879;SDS011;39791;53.184;5.486;2023-04-01T03:19:22;1937.80;;;615.92;;
53879;SDS011;39791;53.184;5.486;2023-04-01T03:21:47;1937.47;;;608.47;;
53879;SDS011;39791;53.184;5.486;2023-04-01T03:24:13;1928.22;;;565.90;;
53879;SDS011;39791;53.184;5.486;2023-04-01T03:26:38;1947.82;;;627.90;;
53879;SDS011;39791;53.184;5.486;2023-04-01T03:29:04;1859.55;;;610.22;;
53879;SDS011;39791;53.184;5.486;2023-04-01T03:31:29;1358.82;;;504.42;;
53879;SDS011;39791;53.184;5.486;2023-04-01T03:33:55;1612.13;;;499.08;;
53879;SDS011;39791;53.184;5.486;2023-04-01T03:36:21;1247.60;;;571.53;;
53879;SDS011;39791;53.184;5.486;2023-04-01T03:38:46;1725.65;;;554.00;;
53879;SDS011;39791;53.184;5.486;2023-04-01T03:41:13;1191.18;;;465.38;;
53879;SDS011;39791;53.184;5.486;2023-04-01T03:43:40;1879.00;;;657.00;;
53879;SDS011;39791;53.184;5.486;2023-04-01T03:46:06;1940.38;;;589.05;;
53879;SDS011;39791;53.184;5.486;2023-04-01T03:48:32;1999.90;;;680.95;;
53879;SDS011;39791;53.184;5.486;2023-04-01T03:50:57;1655.28;;;499.58;;
53879;SDS011;39791;53.184;5.486;2023-04-01T03:53:23;1822.05;;;507.08;;
53879;SDS011;39791;53.184;5.486;2023-04-01T03:55:48;1615.20;;;598.78;;
53879;SDS011;39791;53.184;5.486;2023-04-01T03:58:16;1102.70;;;515.95;;
53879;SDS011;39791;53.184;5.486;2023-04-01T04:00:41;716.72;;;444.27;;
53879;SDS011;39791;53.184;5.486;2023-04-01T04:03:07;1543.63;;;591.10;;
53879;SDS011;39791;53.184;5.486;2023-04-01T04:05:33;1670.45;;;539.55;;
53879;SDS011;39791;53.184;5.486;2023-04-01T04:07:59;1346.05;;;477.08;;
53879;SDS011;39791;53.184;5.486;2023-04-01T04:10:25;1713.78;;;564.75;;
53879;SDS011;39791;53.184;5.486;2023-04-01T04:12:51;1372.40;;;590.13;;
53879;SDS011;39791;53.184;5.486;2023-04-01T04:15:16;992.67;;;543.50;;
53879;SDS011;39791;53.184;5.486;2023-04-01T04:17:43;1796.25;;;580.05;;
53879;SDS011;39791;53.184;5.486;2023-04-01T04:20:10;691.33;;;411.20;;
53879;SDS011;39791;53.184;5.486;2023-04-01T04:22:35;1735.60;;;613.72;;
53879;SDS011;39791;53.184;5.486;2023-04-01T04:25:01;928.67;;;480.58;;
53879;SDS011;39791;53.184;5.486;2023-04-01T04:27:26;628.63;;;370.70;;
53879;SDS011;39791;53.184;5.486;2023-04-01T04:29:52;1107.20;;;553.10;;
53879;SDS011;39791;53.184;5.486;2023-04-01T04:32:17;768.70;;;470.92;;
53879;SDS011;39791;53.184;5.486;2023-04-01T04:34:43;1250.47;;;570.05;;
53879;SDS011;39791;53.184;5.486;2023-04-01T04:37:09;887.42;;;501.52;;
53879;SDS011;39791;53.184;5.486;2023-04-01T04:39:34;890.30;;;458.55;;
53879;SDS011;39791;53.184;5.486;2023-04-01T04:42:00;846.75;;;466.83;;
53879;SDS011;39791;53.184;5.486;2023-04-01T04:44:26;1395.10;;;560.33;;
53879;SDS011;39791;53.184;5.486;2023-04-01T04:46:51;828.50;;;477.05;;
53879;SDS011;39791;53.184;5.486;2023-04-01T04:49:17;1274.65;;;526.35;;
53879;SDS011;39791;53.184;5.486;2023-04-01T04:51:42;1688.00;;;608.47;;
53879;SDS011;39791;53.184;5.486;2023-04-01T04:54:09;1381.35;;;611.08;;
53879;SDS011;39791;53.184;5.486;2023-04-01T04:56:34;1107.68;;;551.78;;
53879;SDS011;39791;53.184;5.486;2023-04-01T04:59:00;1805.90;;;609.67;;
53879;SDS011;39791;53.184;5.486;2023-04-01T05:01:26;1689.55;;;561.80;;
53879;SDS011;39791;53.184;5.486;2023-04-01T05:03:52;1032.43;;;518.85;;
53879;SDS011;39791;53.184;5.486;2023-04-01T05:06:17;1473.47;;;626.38;;
53879;SDS011;39791;53.184;5.486;2023-04-01T05:08:44;672.38;;;391.33;;
53879;SDS011;39791;53.184;5.486;2023-04-01T05:11:11;1047.85;;;501.92;;
53879;SDS011;39791;53.184;5.486;2023-04-01T05:13:39;566.33;;;380.83;;
53879;SDS011;39791;53.184;5.486;2023-04-01T05:16:07;1115.47;;;547.25;;
53879;SDS011;39791;53.184;5.486;2023-04-01T05:18:34;1229.65;;;532.33;;
53879;SDS011;39791;53.184;5.486;2023-04-01T05:21:00;1412.97;;;515.75;;
53879;SDS011;39791;53.184;5.486;2023-04-01T05:23:25;1354.35;;;553.25;;
53879;SDS011;39791;53.184;5.486;2023-04-01T05:25:51;946.10;;;448.70;;
53879;SDS011;39791;53.184;5.486;2023-04-01T05:28:18;922.47;;;519.95;;
53879;SDS011;39791;53.184;5.486;2023-04-01T05:30:44;1258.50;;;513.65;;
53879;SDS011;39791;53.184;5.486;2023-04-01T05:33:11;1648.80;;;566.00;;
53879;SDS011;39791;53.184;5.486;2023-04-01T05:35:37;1312.70;;;519.28;;
53879;SDS011;39791;53.184;5.486;2023-04-01T05:38:03;1374.47;;;577.13;;
53879;SDS011;39791;53.184;5.486;2023-04-01T05:40:29;1334.75;;;568.78;;
53879;SDS011;39791;53.184;5.486;2023-04-01T05:42:55;806.10;;;498.23;;
53879;SDS011;39791;53.184;5.486;2023-04-01T05:45:21;586.53;;;402.30;;
53879;SDS011;39791;53.184;5.486;2023-04-01T05:47:47;1304.78;;;533.35;;
53879;SDS011;39791;53.184;5.486;2023-04-01T05:50:12;757.10;;;450.75;;
53879;SDS011;39791;53.184;5.486;2023-04-01T05:52:38;419.88;;;295.58;;
53879;SDS011;39791;53.184;5.486;2023-04-01T05:55:04;554.40;;;385.63;;
53879;SDS011;39791;53.184;5.486;2023-04-01T05:57:31;661.83;;;462.13;;
53879;SDS011;39791;53.184;5.486;2023-04-01T05:59:56;684.30;;;431.80;;
53879;SDS011;39791;53.184;5.486;2023-04-01T06:02:22;721.97;;;425.02;;
53879;SDS011;39791;53.184;5.486;2023-04-01T06:04:48;629.85;;;364.40;;
53879;SDS011;39791;53.184;5.486;2023-04-01T06:07:15;480.70;;;341.50;;
53879;SDS011;39791;53.184;5.486;2023-04-01T06:09:42;417.45;;;324.40;;
53879;SDS011;39791;53.184;5.486;2023-04-01T06:20:24;982.75;;;480.02;;
53879;SDS011;39791;53.184;5.486;2023-04-01T06:43:21;888.85;;;440.85;;
53879;SDS011;39791;53.184;5.486;2023-04-01T06:46:36;1609.72;;;522.42;;
53879;SDS011;39791;53.184;5.486;2023-04-01T06:52:14;1454.05;;;573.40;;
53879;SDS011;39791;53.184;5.486;2023-04-01T06:54:58;711.20;;;429.15;;
53879;SDS011;39791;53.184;5.486;2023-04-01T06:57:39;1306.25;;;500.38;;
53879;SDS011;39791;53.184;5.486;2023-04-01T07:00:18;1035.07;;;541.03;;
53879;SDS011;39791;53.184;5.486;2023-04-01T07:02:54;1193.07;;;543.40;;
53879;SDS011;39791;53.184;5.486;2023-04-01T07:05:34;1377.28;;;571.42;;
53879;SDS011;39791;53.184;5.486;2023-04-01T07:08:11;1331.32;;;559.55;;
53879;SDS011;39791;53.184;5.486;2023-04-01T07:10:47;732.63;;;396.20;;
53879;SDS011;39791;53.184;5.486;2023-04-01T07:18:41;1999.90;;;593.45;;
53879;SDS011;39791;53.184;5.486;2023-04-01T07:21:10;1670.60;;;428.25;;
53879;SDS011;39791;53.184;5.486;2023-04-01T07:23:49;1592.93;;;394.17;;
53879;SDS011;39791;53.184;5.486;2023-04-01T07:26:19;1999.90;;;666.35;;
53879;SDS011;39791;53.184;5.486;2023-04-01T07:28:45;1942.20;;;452.20;;
53879;SDS011;39791;53.184;5.486;2023-04-01T07:36:52;1085.45;;;417.45;;
53879;SDS011;39791;53.184;5.486;2023-04-01T07:50:53;1799.72;;;522.40;;
53879;SDS011;39791;53.184;5.486;2023-04-01T07:53:32;1999.90;;;586.75;;
53879;SDS011;39791;53.184;5.486;2023-04-01T07:56:09;1946.57;;;499.70;;
53879;SDS011;39791;53.184;5.486;2023-04-01T07:58:56;795.00;;;354.67;;
53879;SDS011;39791;53.184;5.486;2023-04-01T08:01:48;1780.60;;;566.30;;
53879;SDS011;39791;53.184;5.486;2023-04-01T08:04:48;1073.00;;;422.02;;
53879;SDS011;39791;53.184;5.486;2023-04-01T08:21:30;455.90;;;310.45;;
53879;SDS011;39791;53.184;5.486;2023-04-01T08:26:49;716.60;;;397.83;;
53879;SDS011;39791;53.184;5.486;2023-04-01T08:29:21;941.15;;;368.98;;
53879;SDS011;39791;53.184;5.486;2023-04-01T08:31:55;1308.10;;;492.10;;
53879;SDS011;39791;53.184;5.486;2023-04-01T08:34:30;1358.35;;;531.28;;
53879;SDS011;39791;53.184;5.486;2023-04-01T08:37:02;647.45;;;422.02;;
53879;SDS011;39791;53.184;5.486;2023-04-01T08:39:39;951.03;;;415.02;;
53879;SDS011;39791;53.184;5.486;2023-04-01T08:47:34;1047.18;;;428.92;;
53879;SDS011;39791;53.184;5.486;2023-04-01T08:50:23;1317.22;;;473.60;;
53879;SDS011;39791;53.184;5.486;2023-04-01T09:12:30;1576.70;;;540.72;;
53879;SDS011;39791;53.184;5.486;2023-04-01T09:20:42;598.30;;;364.88;;
53879;SDS011;39791;53.184;5.486;2023-04-01T09:34:09;534.25;;;271.67;;
53879;SDS011;39791;53.184;5.486;2023-04-01T09:39:45;498.58;;;341.15;;
53879;SDS011;39791;53.184;5.486;2023-04-01T09:53:36;391.27;;;285.98;;
53879;SDS011;39791;53.184;5.486;2023-04-01T09:56:37;521.25;;;278.63;;
53879;SDS011;39791;53.184;5.486;2023-04-01T09:59:41;415.10;;;294.20;;
53879;SDS011;39791;53.184;5.486;2023-04-01T10:02:33;469.02;;;298.95;;
53879;SDS011;39791;53.184;5.486;2023-04-01T10:05:17;746.72;;;268.10;;
53879;SDS011;39791;53.184;5.486;2023-04-01T10:11:36;314.92;;;251.98;;
53879;SDS011;39791;53.184;5.486;2023-04-01T10:17:21;295.08;;;232.05;;
53879;SDS011;39791;53.184;5.486;2023-04-01T10:20:00;371.13;;;248.43;;
53879;SDS011;39791;53.184;5.486;2023-04-01T10:41:44;327.02;;;275.33;;
53879;SDS011;39791;53.184;5.486;2023-04-01T10:58:56;348.95;;;274.00;;
53879;SDS011;39791;53.184;5.486;2023-04-01T11:04:45;280.20;;;249.77;;
53879;SDS011;39791;53.184;5.486;2023-04-01T11:18:10;407.45;;;276.13;;
53879;SDS011;39791;53.184;5.486;2023-04-01T11:26:20;318.92;;;225.40;;
53879;SDS011;39791;53.184;5.486;2023-04-01T11:29:19;278.88;;;248.43;;
53879;SDS011;39791;53.184;5.486;2023-04-01T11:32:24;502.90;;;274.08;;
53879;SDS011;39791;53.184;5.486;2023-04-01T11:37:41;331.98;;;237.10;;
53879;SDS011;39791;53.184;5.486;2023-04-01T11:45:49;361.63;;;271.52;;
53879;SDS011;39791;53.184;5.486;2023-04-01T11:53:32;327.90;;;230.45;;
53879;SDS011;39791;53.184;5.486;2023-04-01T11:56:27;387.63;;;267.13;;
53879;SDS011;39791;53.184;5.486;2023-04-01T12:10:33;281.50;;;218.80;;
53879;SDS011;39791;53.184;5.486;2023-04-01T12:19:25;333.83;;;286.42;;
53879;SDS011;39791;53.184;5.486;2023-04-01T12:21:44;355.85;;;244.80;;
53879;SDS011;39791;53.184;5.486;2023-04-01T12:29:37;412.48;;;278.67;;
53879;SDS011;39791;53.184;5.486;2023-04-01T12:35:18;498.45;;;330.67;;
53879;SDS011;39791;53.184;5.486;2023-04-01T12:41:18;377.05;;;244.10;;
53879;SDS011;39791;53.184;5.486;2023-04-01T12:52:10;231.18;;;194.07;;
53879;SDS011;39791;53.184;5.486;2023-04-01T13:09:16;335.98;;;243.75;;
53879;SDS011;39791;53.184;5.486;2023-04-01T13:11:56;304.85;;;205.45;;
53879;SDS011;39791;53.184;5.486;2023-04-01T13:19:49;123.43;;;110.15;;
53879;SDS011;39791;53.184;5.486;2023-04-01T13:28:14;335.90;;;230.70;;
53879;SDS011;39791;53.184;5.486;2023-04-01T13:33:38;519.40;;;211.98;;
53879;SDS011;39791;53.184;5.486;2023-04-01T13:41:37;331.23;;;221.70;;
53879;SDS011;39791;53.184;5.486;2023-04-01T13:49:26;176.77;;;120.43;;
53879;SDS011;39791;53.184;5.486;2023-04-01T13:52:04;301.92;;;190.45;;
53879;SDS011;39791;53.184;5.486;2023-04-01T13:54:58;147.23;;;131.77;;
53879;SDS011;39791;53.184;5.486;2023-04-01T13:58:04;229.95;;;150.77;;
53879;SDS011;39791;53.184;5.486;2023-04-01T14:00:54;226.65;;;201.63;;
53879;SDS011;39791;53.184;5.486;2023-04-01T14:03:52;256.40;;;185.63;;
53879;SDS011;39791;53.184;5.486;2023-04-01T14:14:41;327.20;;;235.93;;
53879;SDS011;39791;53.184;5.486;2023-04-01T14:20:22;235.00;;;179.73;;
53879;SDS011;39791;53.184;5.486;2023-04-01T14:28:47;242.38;;;176.93;;
53879;SDS011;39791;53.184;5.486;2023-04-01T14:31:37;293.98;;;212.95;;
53879;SDS011;39791;53.184;5.486;2023-04-01T14:37:22;236.60;;;163.15;;
53879;SDS011;39791;53.184;5.486;2023-04-01T14:48:21;212.38;;;161.35;;
53879;SDS011;39791;53.184;5.486;2023-04-01T14:50:53;219.40;;;172.05;;
53879;SDS011;39791;53.184;5.486;2023-04-01T14:53:33;311.17;;;206.63;;
53879;SDS011;39791;53.184;5.486;2023-04-01T14:56:04;201.90;;;177.13;;
53879;SDS011;39791;53.184;5.486;2023-04-01T15:07:25;208.32;;;169.25;;
53879;SDS011;39791;53.184;5.486;2023-04-01T15:10:32;195.43;;;158.77;;
53879;SDS011;39791;53.184;5.486;2023-04-01T15:13:21;275.88;;;181.60;;
53879;SDS011;39791;53.184;5.486;2023-04-01T15:18:46;254.73;;;194.45;;
53879;SDS011;39791;53.184;5.486;2023-04-01T15:43:16;283.05;;;217.90;;
53879;SDS011;39791;53.184;5.486;2023-04-01T15:48:42;215.63;;;182.32;;
53879;SDS011;39791;53.184;5.486;2023-04-01T15:51:15;207.55;;;170.85;;
53879;SDS011;39791;53.184;5.486;2023-04-01T15:56:30;261.30;;;174.85;;
53879;SDS011;39791;53.184;5.486;2023-04-01T15:59:20;216.57;;;156.00;;
53879;SDS011;39791;53.184;5.486;2023-04-01T16:02:18;186.90;;;142.90;;
53879;SDS011;39791;53.184;5.486;2023-04-01T16:04:58;189.35;;;136.05;;
53879;SDS011;39791;53.184;5.486;2023-04-01T16:13:22;202.32;;;171.07;;
53879;SDS011;39791;53.184;5.486;2023-04-01T16:18:45;210.60;;;148.88;;
53879;SDS011;39791;53.184;5.486;2023-04-01T16:21:43;153.63;;;132.25;;
53879;SDS011;39791;53.184;5.486;2023-04-01T16:24:15;172.50;;;149.55;;
53879;SDS011;39791;53.184;5.486;2023-04-01T16:29:43;332.88;;;235.15;;
53879;SDS011;39791;53.184;5.486;2023-04-01T16:32:27;198.23;;;148.23;;
53879;SDS011;39791;53.184;5.486;2023-04-01T16:35:28;151.70;;;135.75;;
53879;SDS011;39791;53.184;5.486;2023-04-01T16:38:15;155.45;;;129.70;;
53879;SDS011;39791;53.184;5.486;2023-04-01T16:43:45;195.68;;;171.27;;
53879;SDS011;39791;53.184;5.486;2023-04-01T16:46:26;171.48;;;153.43;;
53879;SDS011;39791;53.184;5.486;2023-04-01T17:02:08;171.43;;;142.63;;
53879;SDS011;39791;53.184;5.486;2023-04-01T17:04:45;166.25;;;128.93;;
53879;SDS011;39791;53.184;5.486;2023-04-01T17:07:59;214.85;;;172.18;;
53879;SDS011;39791;53.184;5.486;2023-04-01T17:13:23;205.93;;;155.43;;
53879;SDS011;39791;53.184;5.486;2023-04-01T17:21:00;172.05;;;142.80;;
53879;SDS011;39791;53.184;5.486;2023-04-01T17:23:37;262.35;;;189.48;;
53879;SDS011;39791;53.184;5.486;2023-04-01T17:31:53;209.63;;;186.02;;
53879;SDS011;39791;53.184;5.486;2023-04-01T17:40:11;134.20;;;122.20;;
53879;SDS011;39791;53.184;5.486;2023-04-01T17:42:52;227.68;;;170.30;;
53879;SDS011;39791;53.184;5.486;2023-04-01T17:45:28;202.55;;;159.82;;
53879;SDS011;39791;53.184;5.486;2023-04-01T18:02:05;114.38;;;103.22;;
53879;SDS011;39791;53.184;5.486;2023-04-01T18:21:33;131.40;;;117.57;;
53879;SDS011;39791;53.184;5.486;2023-04-01T18:24:14;153.35;;;126.75;;
53879;SDS011;39791;53.184;5.486;2023-04-01T18:29:36;183.77;;;166.32;;
53879;SDS011;39791;53.184;5.486;2023-04-01T18:32:26;197.02;;;159.32;;
53879;SDS011;39791;53.184;5.486;2023-04-01T18:35:02;177.35;;;152.48;;
53879;SDS011;39791;53.184;5.486;2023-04-01T18:40:17;148.98;;;125.72;;
53879;SDS011;39791;53.184;5.486;2023-04-01T18:43:09;194.00;;;135.77;;
53879;SDS011;39791;53.184;5.486;2023-04-01T18:46:27;247.65;;;168.43;;
53879;SDS011;39791;53.184;5.486;2023-04-01T18:49:16;249.60;;;186.50;;
53879;SDS011;39791;53.184;5.486;2023-04-01T18:51:49;160.77;;;144.02;;
53879;SDS011;39791;53.184;5.486;2023-04-01T18:57:21;226.30;;;188.80;;
53879;SDS011;39791;53.184;5.486;2023-04-01T18:59:55;185.73;;;164.93;;
53879;SDS011;39791;53.184;5.486;2023-04-01T19:02:36;247.68;;;187.68;;
53879;SDS011;39791;53.184;5.486;2023-04-01T19:05:17;82.53;;;75.32;;
53879;SDS011;39791;53.184;5.486;2023-04-01T19:07:49;342.65;;;230.70;;
53879;SDS011;39791;53.184;5.486;2023-04-01T19:15:13;184.70;;;148.57;;
53879;SDS011;39791;53.184;5.486;2023-04-01T19:20:29;180.25;;;139.75;;
53879;SDS011;39791;53.184;5.486;2023-04-01T19:26:17;242.50;;;166.70;;
53879;SDS011;39791;53.184;5.486;2023-04-01T19:28:56;154.52;;;118.07;;
53879;SDS011;39791;53.184;5.486;2023-04-01T19:34:07;149.82;;;130.65;;
53879;SDS011;39791;53.184;5.486;2023-04-01T19:39:25;235.77;;;203.75;;
53879;SDS011;39791;53.184;5.486;2023-04-01T19:42:24;196.27;;;146.48;;
53879;SDS011;39791;53.184;5.486;2023-04-01T19:44:48;182.50;;;164.45;;
53879;SDS011;39791;53.184;5.486;2023-04-01T19:52:59;110.40;;;94.60;;
53879;SDS011;39791;53.184;5.486;2023-04-01T19:58:20;231.40;;;165.40;;
53879;SDS011;39791;53.184;5.486;2023-04-01T20:00:58;313.00;;;208.63;;
53879;SDS011;39791;53.184;5.486;2023-04-01T20:03:34;176.13;;;157.98;;
53879;SDS011;39791;53.184;5.486;2023-04-01T20:09:53;179.27;;;156.57;;
53879;SDS011;39791;53.184;5.486;2023-04-01T20:15:22;113.82;;;103.03;;
53879;SDS011;39791;53.184;5.486;2023-04-01T20:17:57;158.48;;;123.28;;
53879;SDS011;39791;53.184;5.486;2023-04-01T20:20:27;129.05;;;115.97;;
53879;SDS011;39791;53.184;5.486;2023-04-01T20:25:49;142.25;;;120.80;;
53879;SDS011;39791;53.184;5.486;2023-04-01T20:31:40;109.97;;;98.63;;
53879;SDS011;39791;53.184;5.486;2023-04-01T20:34:16;191.02;;;170.02;;
53879;SDS011;39791;53.184;5.486;2023-04-01T20:37:20;106.80;;;96.05;;
53879;SDS011;39791;53.184;5.486;2023-04-01T20:51:33;155.82;;;119.60;;
53879;SDS011;39791;53.184;5.486;2023-04-01T21:02:32;104.97;;;88.25;;
53879;SDS011;39791;53.184;5.486;2023-04-01T21:05:16;105.53;;;95.20;;
53879;SDS011;39791;53.184;5.486;2023-04-01T21:16:10;113.18;;;101.55;;
53879;SDS011;39791;53.184;5.486;2023-04-01T21:24:29;93.18;;;82.88;;
53879;SDS011;39791;53.184;5.486;2023-04-01T21:30:37;133.52;;;111.50;;
53879;SDS011;39791;53.184;5.486;2023-04-01T21:45:20;81.32;;;73.25;;
53879;SDS011;39791;53.184;5.486;2023-04-01T21:53:49;87.55;;;78.65;;
53879;SDS011;39791;53.184;5.486;2023-04-01T21:59:43;184.50;;;164.37;;
53879;SDS011;39791;53.184;5.486;2023-04-01T22:05:25;98.18;;;87.93;;
53879;SDS011;39791;53.184;5.486;2023-04-01T22:08:20;93.63;;;84.32;;
53879;SDS011;39791;53.184;5.486;2023-04-01T22:13:35;92.55;;;83.03;;
53879;SDS011;39791;53.184;5.486;2023-04-01T22:24:22;90.40;;;82.28;;
53879;SDS011;39791;53.184;5.486;2023-04-01T22:27:07;69.53;;;62.25;;
53879;SDS011;39791;53.184;5.486;2023-04-01T22:32:57;78.70;;;71.30;;
53879;SDS011;39791;53.184;5.486;2023-04-01T22:35:57;82.72;;;74.82;;
53879;SDS011;39791;53.184;5.486;2023-04-01T22:49:53;85.00;;;77.15;;
53879;SDS011;39791;53.184;5.486;2023-04-01T22:52:32;58.40;;;53.30;;
53879;SDS011;39791;53.184;5.486;2023-04-01T22:55:08;72.78;;;66.55;;
53879;SDS011;39791;53.184;5.486;2023-04-01T22:57:45;70.38;;;63.67;;
53879;SDS011;39791;53.184;5.486;2023-04-01T23:05:49;83.20;;;75.40;;
53879;SDS011;39791;53.184;5.486;2023-04-01T23:11:06;96.80;;;86.90;;
53879;SDS011;39791;53.184;5.486;2023-04-01T23:13:36;69.38;;;62.78;;
53879;SDS011;39791;53.184;5.486;2023-04-01T23:16:04;66.68;;;60.95;;
53879;SDS011;39791;53.184;5.486;2023-04-01T23:21:16;64.93;;;59.30;;
53879;SDS011;39791;53.184;5.486;2023-04-01T23:26:35;72.13;;;65.20;;
53879;SDS011;39791;53.184;5.486;2023-04-01T23:29:25;76.43;;;69.63;;
53879;SDS011;39791;53.184;5.486;2023-04-01T23:32:01;82.65;;;75.07;;
53879;SDS011;39791;53.184;5.486;2023-04-01T23:34:30;61.72;;;56.92;;
53879;SDS011;39791;53.184;5.486;2023-04-01T23:37:02;71.85;;;65.25;;
53879;SDS011;39791;53.184;5.486;2023-04-01T23:39:36;91.80;;;83.47;;
53879;SDS011;39791;53.184;5.486;2023-04-01T23:42:05;63.40;;;57.95;;
53879;SDS011;39791;53.184;5.486;2023-04-01T23:44:37;54.65;;;50.25;;
53879;SDS011;39791;53.184;5.486;2023-04-01T23:47:04;59.20;;;54.00;;
53879;SDS011;39791;53.184;5.486;2023-04-01T23:49:37;68.75;;;61.78;;
53879;SDS011;39791;53.184;5.486;2023-04-01T23:52:10;85.25;;;77.05;;
53879;SDS011;39791;53.184;5.486;2023-04-01T23:54:49;59.53;;;54.95;;
53879;SDS011;39791;53.184;5.486;2023-04-01T23:57:31;76.88;;;70.50;;
